Time;durP1;ratioP1;P1;durP2;ratioP2;P2;SDS_P1;SDS_P2;PMS_P1;PMS_P2;Temp;Humidity;BMP_temperature;BMP_pressure;BME280_temperature;BME280_humidity;BME280_pressure;Samples;Min_cycle;Max_cycle;Signal;HPM_P1;HPM_P2
2022/03/10 00:01:21;;;;;;;13.47;11.93;;;7.40;53.60;;;;;;5075527;28;20628;-69
2022/03/10 00:03:47;;;;;;;14.13;11.43;;;7.40;53.70;;;;;;5060070;28;20639;-69
2022/03/10 00:06:13;;;;;;;13.23;10.97;;;7.40;53.50;;;;;;5054998;28;20202;-69
2022/03/10 00:08:38;;;;;;;15.43;12.30;;;7.40;53.40;;;;;;5054820;28;20168;-68
2022/03/10 00:11:04;;;;;;;13.73;10.60;;;7.40;53.40;;;;;;5055189;28;20430;-68
2022/03/10 00:13:31;;;;;;;14.47;10.80;;;7.40;53.30;;;;;;5054695;28;20636;-69
2022/03/10 00:15:59;;;;;;;15.10;11.77;;;7.40;53.30;;;;;;5037641;28;20214;-69
2022/03/10 00:18:25;;;;;;;12.43;10.17;;;7.40;53.40;;;;;;5037187;28;20509;-69
2022/03/10 00:20:50;;;;;;;15.23;11.60;;;7.30;53.60;;;;;;5055241;28;20896;-68
2022/03/10 00:23:16;;;;;;;17.13;11.23;;;7.30;54.00;;;;;;5054818;28;20421;-68
2022/03/10 00:25:42;;;;;;;15.33;11.00;;;7.20;54.20;;;;;;5055058;28;20417;-69
2022/03/10 00:28:07;;;;;;;17.03;12.37;;;7.20;54.40;;;;;;5055100;28;20210;-68
2022/03/10 00:30:33;;;;;;;15.93;11.43;;;7.20;54.70;;;;;;5054001;28;20198;-69
2022/03/10 00:32:58;;;;;;;18.90;12.07;;;7.20;54.50;;;;;;5053937;28;20519;-68
2022/03/10 00:35:25;;;;;;;13.10;10.97;;;7.20;54.70;;;;;;5054172;28;20179;-69
2022/03/10 00:37:52;;;;;;;13.83;12.03;;;7.20;54.60;;;;;;5054395;28;20670;-69
2022/03/10 00:40:19;;;;;;;14.20;11.77;;;7.20;54.60;;;;;;5053715;28;20444;-69
2022/03/10 00:42:45;;;;;;;16.40;11.67;;;7.20;54.60;;;;;;5035868;28;20912;-69
2022/03/10 00:45:12;;;;;;;18.30;12.17;;;7.20;54.50;;;;;;5053797;28;20409;-68
2022/03/10 00:47:38;;;;;;;16.27;12.27;;;7.20;54.40;;;;;;5053458;28;20502;-69
2022/03/10 00:50:05;;;;;;;15.50;11.47;;;7.20;54.40;;;;;;5053223;28;20442;-68
2022/03/10 00:52:30;;;;;;;17.93;11.50;;;7.20;54.60;;;;;;5054832;28;20188;-68
2022/03/10 00:54:56;;;;;;;16.10;12.20;;;7.20;55.00;;;;;;5073708;28;20499;-69
2022/03/10 00:57:21;;;;;;;16.60;12.40;;;7.10;55.00;;;;;;5073689;28;20642;-69
2022/03/10 00:59:47;;;;;;;14.10;11.80;;;7.10;55.00;;;;;;5073312;28;20647;-70
2022/03/10 01:02:13;;;;;;;19.60;12.93;;;7.10;55.10;;;;;;5071398;28;20203;-70
2022/03/10 01:04:39;;;;;;;17.90;12.77;;;7.10;55.30;;;;;;5053589;28;20176;-68
2022/03/10 01:07:04;;;;;;;18.03;12.77;;;7.00;55.90;;;;;;5053882;28;20779;-69
2022/03/10 01:09:30;;;;;;;17.53;12.30;;;6.80;56.10;;;;;;5053826;28;20410;-68
2022/03/10 01:11:55;;;;;;;18.10;12.30;;;6.70;56.60;;;;;;5035317;28;20191;-68
2022/03/10 01:14:21;;;;;;;21.90;12.33;;;6.60;57.00;;;;;;5053670;28;20186;-69
2022/03/10 01:16:46;;;;;;;21.10;12.40;;;6.60;57.00;;;;;;5053144;28;20690;-69
2022/03/10 01:19:14;;;;;;;17.77;12.07;;;6.50;57.20;;;;;;5053634;28;20178;-69
2022/03/10 01:21:41;;;;;;;17.63;11.70;;;6.50;57.50;;;;;;5035161;28;20194;-68
2022/03/10 01:24:07;;;;;;;16.87;12.03;;;6.40;57.80;;;;;;5053601;28;20417;-68
2022/03/10 01:26:32;;;;;;;17.07;12.70;;;6.30;58.00;;;;;;5035338;28;20513;-68
2022/03/10 01:28:57;;;;;;;21.53;13.30;;;6.30;58.30;;;;;;5053651;28;20207;-70
2022/03/10 01:31:23;;;;;;;20.17;12.40;;;6.20;58.70;;;;;;5053055;28;20671;-68
2022/03/10 01:33:48;;;;;;;17.40;12.70;;;6.10;59.00;;;;;;5052737;28;20204;-68
2022/03/10 01:36:14;;;;;;;17.80;12.30;;;6.00;59.40;;;;;;5053059;28;20549;-69
2022/03/10 01:38:42;;;;;;;17.00;12.27;;;6.00;59.90;;;;;;5052885;28;20224;-69
2022/03/10 01:41:08;;;;;;;15.43;12.23;;;6.00;60.40;;;;;;5052654;28;20210;-68
2022/03/10 01:43:34;;;;;;;18.83;13.27;;;5.80;60.70;;;;;;5052428;28;20774;-68
2022/03/10 01:46:02;;;;;;;17.30;12.90;;;5.80;61.30;;;;;;5034642;28;20453;-69
2022/03/10 01:48:27;;;;;;;17.13;12.37;;;5.70;61.50;;;;;;5034780;28;20170;-68
2022/03/10 01:50:53;;;;;;;17.17;13.37;;;5.70;61.80;;;;;;5052477;28;20440;-69
2022/03/10 01:53:18;;;;;;;16.33;12.37;;;5.80;62.30;;;;;;5060558;28;20684;-72
2022/03/10 01:55:46;;;;;;;12.90;11.50;;;5.80;62.90;;;;;;5073501;28;20275;-68
2022/03/10 01:58:12;;;;;;;19.10;12.97;;;5.80;62.90;;;;;;5074408;28;20161;-68
2022/03/10 02:00:37;;;;;;;18.13;12.80;;;5.70;63.00;;;;;;5073105;28;20434;-69
2022/03/10 02:03:03;;;;;;;18.37;13.73;;;5.50;63.70;;;;;;5063566;28;20400;-70
2022/03/10 02:05:31;;;;;;;18.87;12.60;;;5.40;64.70;;;;;;5052457;28;20188;-69
2022/03/10 02:10:42;;;;;;;17.77;12.67;;;5.30;65.90;;;;;;5052497;28;20522;-68
2022/03/10 02:13:07;;;;;;;18.17;12.37;;;5.20;66.50;;;;;;5052086;28;20500;-69
2022/03/10 02:18:19;;;;;;;15.97;12.50;;;5.30;67.00;;;;;;5052871;28;20300;-68
2022/03/10 02:20:45;;;;;;;17.17;13.47;;;5.20;66.60;;;;;;5052582;28;20922;-69
2022/03/10 02:23:11;;;;;;;16.23;11.87;;;5.10;67.20;;;;;;5052076;28;20412;-67
2022/03/10 02:25:39;;;;;;;18.50;12.80;;;5.10;67.30;;;;;;5052369;28;20408;-67
2022/03/10 02:28:05;;;;;;;19.00;12.77;;;5.10;67.50;;;;;;5036130;28;20423;-69
2022/03/10 02:30:32;;;;;;;16.27;12.47;;;5.00;68.40;;;;;;5056431;28;20769;-70
2022/03/10 02:32:59;;;;;;;17.40;13.10;;;5.00;69.20;;;;;;5055960;28;20408;-69
2022/03/10 02:35:25;;;;;;;16.63;12.37;;;4.90;69.90;;;;;;5056296;28;20409;-67
2022/03/10 02:37:50;;;;;;;18.77;12.70;;;4.90;70.40;;;;;;5056461;28;20408;-67
2022/03/10 02:40:16;;;;;;;14.80;11.30;;;4.80;71.10;;;;;;5055892;28;20513;-68
2022/03/10 02:42:41;;;;;;;21.30;12.90;;;4.80;71.80;;;;;;5056189;28;20175;-68
2022/03/10 02:45:07;;;;;;;19.60;12.77;;;4.80;72.50;;;;;;5056323;28;20223;-69
2022/03/10 02:47:34;;;;;;;21.47;13.67;;;4.80;73.40;;;;;;5056184;28;20694;-68
2022/03/10 02:49:59;;;;;;;19.60;11.67;;;4.80;74.10;;;;;;5055854;28;20492;-68
2022/03/10 02:52:25;;;;;;;21.00;12.30;;;4.80;74.50;;;;;;5056367;28;20843;-68
2022/03/10 02:54:51;;;;;;;16.80;13.37;;;4.80;74.60;;;;;;5076550;28;20170;-68
2022/03/10 02:57:16;;;;;;;18.73;13.97;;;4.90;74.70;;;;;;5076139;28;20174;-68
2022/03/10 02:59:42;;;;;;;17.83;13.43;;;5.00;75.10;;;;;;5076012;28;20918;-68
2022/03/10 03:02:09;;;;;;;17.50;12.63;;;5.00;75.20;;;;;;5074686;28;20173;-68
2022/03/10 03:04:35;;;;;;;18.63;13.00;;;4.90;75.70;;;;;;5055991;28;20412;-68
2022/03/10 03:07:00;;;;;;;16.93;12.90;;;4.90;76.40;;;;;;5056209;28;20454;-68
2022/03/10 03:09:26;;;;;;;17.67;12.40;;;4.90;76.80;;;;;;5055794;28;20174;-69
2022/03/10 03:11:51;;;;;;;15.83;11.37;;;5.00;77.30;;;;;;5055540;28;20432;-68
2022/03/10 03:14:17;;;;;;;19.70;12.70;;;4.90;77.30;;;;;;5055812;28;20166;-69
2022/03/10 03:16:43;;;;;;;14.20;11.63;;;4.70;77.10;;;;;;5055536;28;20253;-69
2022/03/10 03:19:09;;;;;;;19.80;13.60;;;4.60;77.00;;;;;;5038179;28;20479;-69
2022/03/10 03:21:35;;;;;;;16.57;12.80;;;4.50;77.00;;;;;;5055200;28;20283;-69
2022/03/10 03:24:01;;;;;;;18.07;12.73;;;4.40;77.60;;;;;;5055735;28;20190;-69
2022/03/10 03:26:26;;;;;;;18.37;11.97;;;4.40;78.20;;;;;;5055492;28;20209;-68
2022/03/10 03:28:52;;;;;;;16.50;12.37;;;4.30;78.90;;;;;;5057318;28;20412;-69
2022/03/10 03:31:18;;;;;;;16.47;11.90;;;4.20;79.60;;;;;;5056598;28;20187;-68
2022/03/10 03:33:43;;;;;;;19.30;12.30;;;4.20;80.00;;;;;;5037251;28;20196;-69
2022/03/10 03:36:09;;;;;;;19.80;12.57;;;4.30;80.50;;;;;;5055013;28;20466;-68
2022/03/10 03:38:35;;;;;;;17.77;12.30;;;4.40;81.00;;;;;;5054910;28;20648;-69
2022/03/10 03:41:01;;;;;;;17.03;12.90;;;4.50;81.60;;;;;;5055005;28;20214;-69
2022/03/10 03:43:27;;;;;;;16.27;12.37;;;4.50;81.90;;;;;;5054858;28;20786;-68
2022/03/10 03:45:52;;;;;;;16.13;12.13;;;4.50;82.20;;;;;;5054987;28;20180;-70
2022/03/10 03:48:18;;;;;;;16.27;12.93;;;4.40;82.00;;;;;;5054399;28;20253;-69
2022/03/10 03:50:43;;;;;;;20.57;12.40;;;4.40;81.80;;;;;;5071531;22;20244;-69
2022/03/10 03:53:09;;;;;;;16.90;11.50;;;4.40;81.70;;;;;;5040509;28;20168;-68
2022/03/10 03:55:35;;;;;;;17.23;12.33;;;4.40;82.10;;;;;;5054301;28;20517;-69
2022/03/10 03:58:00;;;;;;;18.13;12.90;;;4.50;82.30;;;;;;5054059;28;20189;-69
2022/03/10 04:00:26;;;;;;;17.47;12.63;;;4.60;82.10;;;;;;5053962;28;20201;-69
2022/03/10 04:02:53;;;;;;;15.07;12.93;;;4.60;82.10;;;;;;5046347;28;20186;-68
2022/03/10 04:05:19;;;;;;;16.90;11.87;;;4.60;81.80;;;;;;5033938;28;20670;-69
2022/03/10 04:07:44;;;;;;;17.90;12.13;;;4.60;81.70;;;;;;5033858;28;20464;-68
2022/03/10 04:10:10;;;;;;;19.90;12.20;;;4.60;81.50;;;;;;5033813;28;20174;-68
2022/03/10 04:12:35;;;;;;;15.37;12.20;;;4.60;81.20;;;;;;5033591;28;20174;-69
2022/03/10 04:15:01;;;;;;;15.70;11.83;;;4.60;81.70;;;;;;5033668;28;20198;-69
2022/03/10 04:17:27;;;;;;;14.90;11.87;;;4.60;81.70;;;;;;5016012;28;20677;-70
2022/03/10 04:19:53;;;;;;;16.43;11.47;;;4.60;82.60;;;;;;5016295;28;20406;-69
2022/03/10 04:22:18;;;;;;;19.03;11.53;;;4.50;83.60;;;;;;5033167;28;20198;-68
2022/03/10 04:24:44;;;;;;;17.97;11.30;;;4.40;84.10;;;;;;5032006;28;20189;-69
2022/03/10 04:27:10;;;;;;;19.47;12.07;;;4.40;84.50;;;;;;5035181;28;20725;-69
2022/03/10 04:29:35;;;;;;;16.30;12.03;;;4.30;85.00;;;;;;5053123;28;20179;-69
2022/03/10 04:32:01;;;;;;;18.17;10.97;;;4.30;85.20;;;;;;5032975;28;20208;-69
2022/03/10 04:34:26;;;;;;;15.80;11.20;;;4.40;85.20;;;;;;5051353;28;20186;-69
2022/03/10 04:36:52;;;;;;;15.33;11.83;;;4.40;85.10;;;;;;5051382;28;20174;-70
2022/03/10 04:39:17;;;;;;;15.30;11.40;;;4.40;84.80;;;;;;5040177;28;20185;-69
2022/03/10 04:41:43;;;;;;;18.83;11.73;;;4.40;84.40;;;;;;5033115;28;20199;-68
2022/03/10 04:44:10;;;;;;;15.20;10.67;;;4.40;84.10;;;;;;5033254;28;20236;-69
2022/03/10 04:46:36;;;;;;;15.23;11.43;;;4.40;84.10;;;;;;5033074;28;20202;-70
2022/03/10 04:49:02;;;;;;;15.43;11.37;;;4.50;84.50;;;;;;5032901;28;20407;-69
2022/03/10 04:51:27;;;;;;;15.60;11.53;;;4.50;84.80;;;;;;5014517;28;20475;-70
2022/03/10 04:53:53;;;;;;;13.17;9.63;;;4.50;84.80;;;;;;5045392;28;20413;-68
2022/03/10 04:56:18;;;;;;;17.57;12.53;;;4.50;84.90;;;;;;5052972;28;20715;-69
2022/03/10 04:58:44;;;;;;;25.80;12.50;;;4.50;85.10;;;;;;5053188;28;20197;-70
2022/03/10 05:01:11;;;;;;;15.77;12.17;;;4.50;85.50;;;;;;5052750;28;20206;-69
2022/03/10 05:03:36;;;;;;;16.33;11.93;;;4.40;85.90;;;;;;5039374;28;20182;-69
2022/03/10 05:06:02;;;;;;;19.13;12.80;;;4.40;86.50;;;;;;5032865;28;20871;-68
2022/03/10 05:08:27;;;;;;;17.60;13.10;;;4.20;88.40;;;;;;5032890;28;20264;-70
2022/03/10 05:10:53;;;;;;;15.60;12.50;;;4.10;88.70;;;;;;5032812;28;20189;-69
2022/03/10 05:13:19;;;;;;;20.70;13.83;;;4.20;89.20;;;;;;5032430;28;20197;-70
2022/03/10 05:15:45;;;;;;;18.63;13.00;;;4.10;88.70;;;;;;5033214;28;20238;-70
2022/03/10 05:18:10;;;;;;;20.27;14.50;;;4.20;88.80;;;;;;5014710;28;20425;-69
2022/03/10 05:20:36;;;;;;;16.23;13.37;;;4.20;88.30;;;;;;5032614;28;20191;-69
2022/03/10 05:23:03;;;;;;;20.23;12.13;;;4.10;90.50;;;;;;5032812;28;20173;-70
2022/03/10 05:25:40;;;;;;;18.20;12.10;;;4.20;90.50;;;;;;5032483;28;20521;-68
2022/03/10 05:28:11;;;;;;;16.93;14.10;;;4.20;90.60;;;;;;5032719;28;20460;-70
2022/03/10 05:30:36;;;;;;;19.80;14.00;;;4.30;90.60;;;;;;5033135;28;20506;-69
2022/03/10 05:33:02;;;;;;;18.10;14.27;;;4.20;90.60;;;;;;5032265;28;20945;-71
2022/03/10 05:35:29;;;;;;;16.10;12.20;;;4.20;90.80;;;;;;5032543;28;20221;-70
2022/03/10 05:37:55;;;;;;;21.70;14.97;;;4.10;91.00;;;;;;5015217;28;20645;-68
2022/03/10 05:40:21;;;;;;;23.03;13.80;;;4.10;91.20;;;;;;5032981;28;20497;-70
2022/03/10 05:42:48;;;;;;;20.30;13.33;;;4.00;91.50;;;;;;5053152;28;20423;-70
2022/03/10 05:45:19;;;;;;;19.93;12.90;;;4.00;91.50;;;;;;5053972;28;20420;-69
2022/03/10 05:47:46;;;;;;;19.40;13.13;;;4.00;91.60;;;;;;5055217;28;20452;-68
2022/03/10 05:50:11;;;;;;;22.50;12.40;;;4.10;91.60;;;;;;5053573;28;20468;-69
2022/03/10 05:52:37;;;;;;;24.77;13.37;;;4.10;91.80;;;;;;5040302;28;20440;-70
2022/03/10 05:55:04;;;;;;;19.40;13.87;;;4.00;91.80;;;;;;5052691;28;20198;-70
2022/03/10 05:57:30;;;;;;;18.70;12.10;;;4.00;92.30;;;;;;5054264;28;20498;-70
2022/03/10 05:59:56;;;;;;;17.07;12.23;;;4.10;91.80;;;;;;5067658;28;20430;-71
2022/03/10 06:02:21;;;;;;;13.33;11.63;;;4.10;91.30;;;;;;5062327;28;20426;-69
2022/03/10 06:04:47;;;;;;;15.90;12.10;;;4.00;89.40;;;;;;5046944;28;20205;-70
2022/03/10 06:07:12;;;;;;;22.33;13.00;;;4.00;88.80;;;;;;5046696;28;20261;-70
2022/03/10 06:09:38;;;;;;;16.73;11.17;;;3.90;88.60;;;;;;5046653;28;20189;-69
2022/03/10 06:12:04;;;;;;;17.57;12.33;;;3.90;89.50;;;;;;5041491;28;20193;-70
2022/03/10 06:14:30;;;;;;;15.97;12.10;;;3.90;89.70;;;;;;5039905;28;20165;-71
2022/03/10 06:16:56;;;;;;;14.40;11.00;;;3.90;90.30;;;;;;5038832;28;20451;-70
2022/03/10 06:19:22;;;;;;;20.10;12.90;;;4.00;90.80;;;;;;5026254;28;20177;-70
2022/03/10 06:21:48;;;;;;;21.83;12.67;;;4.00;91.20;;;;;;5038174;28;20224;-70
2022/03/10 06:24:14;;;;;;;15.23;11.07;;;4.10;91.60;;;;;;5036911;28;20448;-70
2022/03/10 06:26:40;;;;;;;19.23;13.17;;;4.10;91.60;;;;;;5037439;28;20521;-70
2022/03/10 06:29:08;;;;;;;18.50;13.30;;;4.20;91.60;;;;;;5037585;28;20416;-70
2022/03/10 06:31:34;;;;;;;16.23;12.07;;;4.30;91.70;;;;;;5037504;28;20461;-66
2022/03/10 06:34:00;;;;;;;17.17;13.10;;;4.30;91.70;;;;;;5035504;28;20409;-69
2022/03/10 06:36:26;;;;;;;20.53;13.57;;;4.30;91.70;;;;;;5043491;28;20479;-70
2022/03/10 06:38:52;;;;;;;18.77;13.37;;;4.30;91.60;;;;;;5047058;28;20456;-69
2022/03/10 06:41:18;;;;;;;23.07;13.57;;;4.40;91.70;;;;;;5043034;28;20472;-69
2022/03/10 06:43:44;;;;;;;18.03;12.37;;;4.40;91.40;;;;;;5042195;28;20444;-70
2022/03/10 06:46:09;;;;;;;21.57;14.50;;;4.40;91.00;;;;;;5029096;28;20227;-70
2022/03/10 06:48:35;;;;;;;23.40;14.00;;;4.50;90.80;;;;;;5052953;28;20289;-68
2022/03/10 06:51:01;;;;;;;20.40;12.83;;;4.50;90.60;;;;;;5051946;28;20248;-70
2022/03/10 06:53:27;;;;;;;20.50;13.13;;;4.60;90.20;;;;;;5046725;28;20201;-71
2022/03/10 06:55:53;;;;;;;18.43;11.63;;;4.60;89.90;;;;;;5036039;28;20207;-70
2022/03/10 06:58:18;;;;;;;17.87;12.13;;;4.60;89.60;;;;;;5036549;28;20191;-68
2022/03/10 07:00:44;;;;;;;17.20;11.97;;;4.70;89.50;;;;;;5018384;28;20445;-69
2022/03/10 07:03:10;;;;;;;21.80;13.40;;;4.70;89.30;;;;;;5035525;28;20444;-71
2022/03/10 07:05:35;;;;;;;22.57;12.47;;;4.80;89.10;;;;;;5014986;28;20219;-68
2022/03/10 07:08:01;;;;;;;27.20;13.03;;;4.90;89.10;;;;;;5030947;28;20242;-70
2022/03/10 07:10:27;;;;;;;22.73;12.70;;;4.90;88.70;;;;;;5029691;28;20199;-70
2022/03/10 07:12:54;;;;;;;18.83;12.53;;;5.00;88.70;;;;;;5030661;28;20198;-71
2022/03/10 07:15:19;;;;;;;18.57;13.30;;;5.00;88.60;;;;;;5034179;28;20198;-70
2022/03/10 07:17:45;;;;;;;19.93;13.83;;;5.10;88.70;;;;;;5035228;28;20506;-70
2022/03/10 07:20:13;;;;;;;18.70;13.00;;;5.10;88.70;;;;;;5041157;28;20293;-70
2022/03/10 07:22:39;;;;;;;16.93;12.57;;;5.10;88.50;;;;;;5035547;28;20682;-69
2022/03/10 07:25:05;;;;;;;21.47;13.43;;;5.20;88.30;;;;;;5054545;28;20443;-70
2022/03/10 07:27:31;;;;;;;16.53;12.80;;;5.30;88.40;;;;;;5035023;28;20540;-70
2022/03/10 07:29:57;;;;;;;23.80;15.13;;;5.30;88.30;;;;;;5054200;28;20452;-69
2022/03/10 07:32:26;;;;;;;18.10;14.00;;;5.40;88.20;;;;;;5053079;28;20210;-69
2022/03/10 07:34:52;;;;;;;17.03;12.77;;;5.40;86.70;;;;;;5053188;28;20198;-70
2022/03/10 07:37:17;;;;;;;17.10;12.50;;;5.50;85.70;;;;;;5053167;28;20468;-69
2022/03/10 07:39:43;;;;;;;20.20;13.47;;;5.50;84.60;;;;;;5054136;28;20198;-68
2022/03/10 07:42:08;;;;;;;24.20;12.90;;;5.60;83.70;;;;;;5052747;28;20225;-69
2022/03/10 07:44:34;;;;;;;22.87;14.70;;;5.70;82.90;;;;;;5052877;28;20295;-69
2022/03/10 07:47:00;;;;;;;25.43;15.07;;;5.80;82.70;;;;;;5052719;28;20240;-68
2022/03/10 07:49:25;;;;;;;19.77;14.13;;;5.90;82.20;;;;;;5050783;28;20209;-69
2022/03/10 07:51:51;;;;;;;17.10;12.67;;;6.00;81.50;;;;;;5031776;28;20628;-69
2022/03/10 07:54:16;;;;;;;15.80;12.13;;;6.20;79.00;;;;;;5048969;28;20197;-67
2022/03/10 07:56:42;;;;;;;16.47;12.20;;;6.40;77.70;;;;;;5052035;28;20286;-68
2022/03/10 07:59:07;;;;;;;19.97;13.20;;;6.50;76.60;;;;;;5052437;28;20242;-68
2022/03/10 08:01:33;;;;;;;20.87;13.20;;;6.60;74.60;;;;;;5053002;28;20559;-69
2022/03/10 08:03:58;;;;;;;20.40;13.20;;;6.80;74.20;;;;;;5035861;28;20225;-71
2022/03/10 08:06:26;;;;;;;19.10;13.70;;;7.00;73.50;;;;;;5032879;28;20217;-70
2022/03/10 08:08:52;;;;;;;19.53;12.60;;;7.10;73.10;;;;;;5033302;28;20277;-69
2022/03/10 08:11:18;;;;;;;20.33;12.70;;;7.30;72.30;;;;;;5032634;28;20854;-69
2022/03/10 08:13:44;;;;;;;19.70;13.10;;;7.40;71.70;;;;;;5032790;28;20215;-70
2022/03/10 08:16:10;;;;;;;19.20;13.53;;;7.50;71.00;;;;;;5032472;28;20468;-70
2022/03/10 08:18:36;;;;;;;17.50;12.97;;;7.60;70.10;;;;;;5031060;28;20453;-70
2022/03/10 08:21:02;;;;;;;22.93;13.33;;;7.80;70.00;;;;;;5033451;28;20441;-69
2022/03/10 08:23:27;;;;;;;18.53;14.47;;;7.90;69.40;;;;;;5032110;28;20210;-68
2022/03/10 08:25:54;;;;;;;18.37;13.40;;;8.00;68.70;;;;;;5032878;28;20441;-69
2022/03/10 08:28:20;;;;;;;19.57;15.03;;;8.20;68.30;;;;;;5032287;28;20239;-69
2022/03/10 08:30:45;;;;;;;23.47;14.37;;;8.30;67.90;;;;;;5015803;28;20529;-68
2022/03/10 08:33:11;;;;;;;21.93;15.60;;;8.40;67.60;;;;;;5031021;28;20202;-69
2022/03/10 08:35:37;;;;;;;22.50;15.33;;;8.50;66.70;;;;;;5033028;28;20275;-68
2022/03/10 08:38:03;;;;;;;20.40;14.67;;;8.50;66.40;;;;;;5015164;28;20639;-70
2022/03/10 08:40:28;;;;;;;25.30;17.10;;;8.60;66.40;;;;;;5031775;28;20541;-70
2022/03/10 08:42:54;;;;;;;20.87;15.60;;;8.70;66.20;;;;;;5033043;28;20206;-71
2022/03/10 08:45:21;;;;;;;20.23;14.87;;;8.80;65.90;;;;;;5034559;28;20575;-70
2022/03/10 08:47:46;;;;;;;20.70;14.80;;;9.00;65.70;;;;;;5033171;28;20493;-68
2022/03/10 08:50:12;;;;;;;25.67;16.07;;;9.10;65.30;;;;;;5039932;28;20464;-70
2022/03/10 08:52:39;;;;;;;21.03;14.93;;;9.20;65.70;;;;;;5052144;28;20260;-67
2022/03/10 08:55:05;;;;;;;21.17;15.13;;;9.40;64.20;;;;;;5033309;28;20225;-70
2022/03/10 08:57:32;;;;;;;22.80;15.83;;;9.50;63.40;;;;;;5032300;28;20526;-69
2022/03/10 08:59:57;;;;;;;22.57;15.87;;;9.60;62.20;;;;;;5031690;28;20461;-69
2022/03/10 09:02:23;;;;;;;21.93;16.13;;;9.70;62.00;;;;;;5015482;28;20871;-68
2022/03/10 09:04:48;;;;;;;21.37;15.10;;;9.80;61.80;;;;;;5032695;28;20214;-69
2022/03/10 09:07:14;;;;;;;21.40;15.40;;;9.90;60.50;;;;;;5034030;28;20276;-69
2022/03/10 09:09:39;;;;;;;66.53;22.90;;;9.90;60.40;;;;;;5034343;28;20214;-69
2022/03/10 09:12:05;;;;;;;27.47;15.70;;;10.00;59.20;;;;;;5033766;28;20195;-70
2022/03/10 09:14:31;;;;;;;25.50;17.47;;;10.10;59.20;;;;;;5033051;28;20306;-70
2022/03/10 09:16:57;;;;;;;29.90;16.93;;;10.20;58.80;;;;;;5034567;28;20204;-69
2022/03/10 09:19:23;;;;;;;22.87;15.77;;;10.30;58.50;;;;;;5035228;28;20199;-66
2022/03/10 09:21:48;;;;;;;25.40;17.27;;;10.40;58.00;;;;;;5058155;28;20248;-69
2022/03/10 09:24:14;;;;;;;21.37;15.20;;;10.40;57.90;;;;;;5063955;28;20441;-68
2022/03/10 09:26:39;;;;;;;24.03;16.90;;;10.60;57.60;;;;;;5043118;28;20245;-70
2022/03/10 09:29:05;;;;;;;23.20;16.10;;;10.70;57.20;;;;;;5062577;28;20216;-69
2022/03/10 09:31:32;;;;;;;24.27;16.57;;;10.80;56.50;;;;;;5058833;28;20209;-70
2022/03/10 09:33:57;;;;;;;21.83;15.13;;;10.90;56.50;;;;;;5071031;28;20176;-71
2022/03/10 09:36:26;;;;;;;23.37;16.67;;;11.00;56.30;;;;;;5071959;28;20440;-67
2022/03/10 09:38:52;;;;;;;24.73;16.83;;;11.20;56.00;;;;;;5073539;28;20451;-69
2022/03/10 09:41:18;;;;;;;22.43;16.20;;;11.20;55.50;;;;;;5056042;28;20527;-67
2022/03/10 09:43:44;;;;;;;23.60;16.23;;;11.30;55.20;;;;;;5071537;28;20456;-69
2022/03/10 09:46:09;;;;;;;22.30;16.30;;;11.30;54.80;;;;;;5051854;28;20217;-70
2022/03/10 09:48:36;;;;;;;21.40;14.50;;;11.50;54.50;;;;;;5051816;28;20218;-70
2022/03/10 09:51:02;;;;;;;21.50;15.80;;;11.60;54.70;;;;;;5037823;28;20260;-70
2022/03/10 09:53:30;;;;;;;21.70;15.70;;;11.70;54.40;;;;;;5014161;28;20438;-70
2022/03/10 09:55:56;;;;;;;21.50;14.97;;;11.80;53.40;;;;;;5030989;28;20213;-69
2022/03/10 09:58:22;;;;;;;19.70;14.60;;;12.00;53.00;;;;;;5031034;28;20870;-68
2022/03/10 10:00:47;;;;;;;22.40;15.53;;;11.90;52.50;;;;;;5013424;28;20206;-68
2022/03/10 10:03:13;;;;;;;22.23;15.03;;;12.10;52.20;;;;;;5030515;28;20209;-69
2022/03/10 10:05:40;;;;;;;23.93;14.23;;;12.10;51.50;;;;;;5030905;28;20202;-70
2022/03/10 10:08:13;;;;;;;24.57;16.33;;;12.20;51.40;;;;;;5034325;28;20304;-69
2022/03/10 10:10:42;;;;;;;25.60;15.27;;;12.20;51.10;;;;;;5031409;28;20535;-69
2022/03/10 10:13:08;;;;;;;23.00;14.30;;;12.30;51.00;;;;;;5031622;28;20465;-68
2022/03/10 10:15:35;;;;;;;19.00;14.60;;;12.40;50.90;;;;;;5031052;28;20517;-68
2022/03/10 10:18:01;;;;;;;20.20;14.03;;;12.40;50.10;;;;;;5030623;28;20325;-69
2022/03/10 10:20:45;;;;;;;20.77;14.43;;;12.50;49.80;;;;;;5040782;28;20484;-70
2022/03/10 10:23:31;;;;;;;20.00;14.73;;;12.50;50.00;;;;;;5050717;28;20467;-69
2022/03/10 10:26:10;;;;;;;20.40;14.80;;;12.60;49.40;;;;;;5051634;28;20456;-69
2022/03/10 10:28:38;;;;;;;17.10;14.57;;;12.70;48.80;;;;;;5034393;28;20871;-69
2022/03/10 10:31:07;;;;;;;24.57;16.43;;;12.80;49.30;;;;;;5053240;28;20841;-70
2022/03/10 10:33:35;;;;;;;20.17;14.63;;;12.80;48.70;;;;;;5052780;28;20456;-69
2022/03/10 10:36:23;;;;;;;21.07;14.87;;;12.90;48.30;;;;;;5056036;28;21025;-68
2022/03/10 10:38:49;;;;;;;18.10;13.37;;;13.00;48.40;;;;;;5055426;28;20452;-68
2022/03/10 10:41:31;;;;;;;17.10;13.27;;;13.00;48.20;;;;;;5074420;28;20432;-70
2022/03/10 10:44:03;;;;;;;21.80;14.83;;;13.10;48.00;;;;;;5073615;28;20478;-70
2022/03/10 10:46:40;;;;;;;20.70;15.17;;;13.20;47.50;;;;;;5075078;28;20472;-66
2022/03/10 10:49:12;;;;;;;18.50;13.33;;;13.30;47.80;;;;;;5062889;28;20546;-71
2022/03/10 10:51:45;;;;;;;17.40;13.43;;;13.40;47.30;;;;;;5039354;28;20456;-69
2022/03/10 10:54:20;;;;;;;18.30;13.27;;;13.40;46.80;;;;;;5053257;28;20492;-69
2022/03/10 10:56:55;;;;;;;19.07;13.60;;;13.50;46.60;;;;;;5056515;28;20434;-69
2022/03/10 10:59:28;;;;;;;25.53;13.47;;;13.50;46.60;;;;;;5056350;28;20444;-69
2022/03/10 11:02:08;;;;;;;17.60;12.97;;;13.60;46.50;;;;;;5056528;28;20970;-70
2022/03/10 11:04:35;;;;;;;20.57;13.20;;;13.80;46.50;;;;;;5016845;28;20449;-71
2022/03/10 11:07:00;;;;;;;16.57;13.47;;;13.90;46.40;;;;;;5017783;28;20477;-70
2022/03/10 11:09:26;;;;;;;23.23;14.00;;;13.70;45.80;;;;;;5016061;28;20959;-70
2022/03/10 11:11:53;;;;;;;17.20;12.97;;;13.80;45.80;;;;;;5015053;28;20656;-69
2022/03/10 11:14:20;;;;;;;14.87;11.73;;;13.80;45.50;;;;;;4980725;28;20253;-68
2022/03/10 11:16:47;;;;;;;17.17;12.67;;;13.90;45.80;;;;;;5015640;28;20445;-70
2022/03/10 11:19:15;;;;;;;14.67;11.80;;;13.90;45.90;;;;;;4997675;28;20458;-69
2022/03/10 11:21:58;;;;;;;15.67;11.80;;;14.00;45.40;;;;;;5013881;28;20434;-69
2022/03/10 11:24:37;;;;;;;16.03;12.70;;;14.00;45.30;;;;;;5015004;28;20457;-70
2022/03/10 11:27:18;;;;;;;16.73;12.07;;;14.00;44.90;;;;;;4997770;28;20806;-70
2022/03/10 11:29:51;;;;;;;15.83;12.30;;;14.00;45.10;;;;;;5014724;28;20454;-70
2022/03/10 11:32:16;;;;;;;15.33;11.50;;;14.10;45.40;;;;;;4996352;28;20435;-70
2022/03/10 11:34:52;;;;;;;15.17;10.70;;;14.10;45.30;;;;;;5015274;28;20469;-68
2022/03/10 11:37:47;;;;;;;19.20;11.40;;;14.10;44.40;;;;;;5013879;28;20203;-69
2022/03/10 11:40:15;;;;;;;14.83;11.53;;;14.00;44.30;;;;;;5014815;28;20596;-69
2022/03/10 11:42:41;;;;;;;13.87;11.50;;;14.10;44.60;;;;;;5014525;28;20939;-69
2022/03/10 11:45:21;;;;;;;14.17;11.47;;;14.20;44.80;;;;;;4996920;28;20458;-70
2022/03/10 11:47:48;;;;;;;12.30;10.70;;;14.30;44.70;;;;;;5014098;28;20214;-71
2022/03/10 11:50:22;;;;;;;16.27;11.73;;;14.20;44.70;;;;;;5030526;28;20460;-69
2022/03/10 11:53:03;;;;;;;14.33;10.73;;;14.30;44.50;;;;;;5050923;28;20480;-69
2022/03/10 11:55:53;;;;;;;12.63;9.80;;;14.20;44.10;;;;;;5033882;28;20896;-69
2022/03/10 11:58:30;;;;;;;14.03;9.70;;;14.20;43.80;;;;;;5034078;28;20432;-68
2022/03/10 12:00:59;;;;;;;15.17;10.60;;;14.20;44.00;;;;;;5014655;28;20665;-69
2022/03/10 12:03:29;;;;;;;18.13;10.77;;;14.30;44.00;;;;;;5032685;28;20777;-69
2022/03/10 12:06:12;;;;;;;12.97;9.73;;;14.30;44.20;;;;;;5033919;28;20449;-69
2022/03/10 12:08:42;;;;;;;12.37;10.77;;;14.20;44.10;;;;;;5035368;28;20447;-70
2022/03/10 12:11:13;;;;;;;12.30;10.63;;;14.10;44.20;;;;;;5034063;28;20475;-69
2022/03/10 12:13:44;;;;;;;13.70;10.13;;;14.10;44.80;;;;;;5015175;28;20440;-70
2022/03/10 12:16:25;;;;;;;13.70;10.30;;;14.10;44.60;;;;;;5037500;28;20471;-69
2022/03/10 12:18:52;;;;;;;11.17;9.67;;;14.30;44.80;;;;;;5054021;28;20433;-71
2022/03/10 12:21:22;;;;;;;10.23;9.07;;;14.30;44.60;;;;;;5053261;28;20460;-68
2022/03/10 12:23:50;;;;;;;10.17;9.03;;;14.30;43.90;;;;;;5055177;28;20618;-70
2022/03/10 12:26:24;;;;;;;13.90;9.97;;;14.30;43.60;;;;;;5054759;28;20441;-69
2022/03/10 12:28:50;;;;;;;10.47;9.23;;;14.30;44.00;;;;;;5037031;28;20457;-69
2022/03/10 12:31:19;;;;;;;16.00;9.33;;;14.30;43.80;;;;;;5054824;28;20764;-69
2022/03/10 12:33:54;;;;;;;9.93;7.70;;;14.30;43.90;;;;;;5054665;28;20418;-69
2022/03/10 12:36:32;;;;;;;10.53;8.30;;;14.30;43.70;;;;;;5055111;28;20404;-71
2022/03/10 12:39:00;;;;;;;9.20;7.20;;;14.30;43.70;;;;;;5055771;28;20421;-68
2022/03/10 12:41:30;;;;;;;8.33;7.53;;;14.30;43.80;;;;;;5054876;28;20437;-69